NORTHEAST SUFFOLK  -  Wind Advisory Wind Advisory     Wind Advisory Wind Advisory     Rip Current Statement Rip Current Statement     Rip Current Statement Rip Current Statement        NORTHERN NASSAU  -  Wind Advisory Wind Advisory     Wind Advisory Wind Advisory     Coastal Flood Statement Coastal Flood Statement     Rip Current Statement Rip Current Statement     Rip Current Statement Rip Current Statement        NORTHERN QUEENS  -  Wind Advisory Wind Advisory     Coastal Flood Statement Coastal Flood Statement     Rip Current Statement Rip Current Statement     Rip Current Statement Rip Current Statement        NORTHWEST SUFFOLK  -  Wind Advisory Wind Advisory     Wind Advisory Wind Advisory     Rip Current Statement Rip Current Statement     Rip Current Statement Rip Current Statement        SOUTHEAST SUFFOLK  -  Wind Advisory Wind Advisory     Wind Advisory Wind Advisory     Rip Current Statement Rip Current Statement     Rip Current Statement Rip Current Statement        SOUTHERN NASSAU  -  Wind Advisory Wind Advisory     Wind Advisory Wind Advisory     Coastal Flood Statement Coastal Flood Statement     Rip Current Statement Rip Current Statement     Rip Current Statement Rip Current Statement        SOUTHERN QUEENS  -  Wind Advisory Wind Advisory     Coastal Flood Statement Coastal Flood Statement     Rip Current Statement Rip Current Statement     Rip Current Statement Rip Current Statement        SOUTHWEST SUFFOLK  -  Wind Advisory Wind Advisory     Wind Advisory Wind Advisory     Rip Current Statement Rip Current Statement     Rip Current Statement Rip Current Statement      

Active alerts

Northern Queens
  Details for Northern Queens Wind Advisory  +3 additional alerts
Southern Queens
  Details for Southern Queens Wind Advisory  +3 additional alerts
Northern Nassau
  Details for Northern Nassau Wind Advisory  +4 additional alerts
Southern Nassau
  Details for Southern Nassau Wind Advisory  +4 additional alerts
Northwest Suffolk
  Details for Northwest Suffolk Wind Advisory  +3 additional alerts
Southwest Suffolk
  Details for Southwest Suffolk Wind Advisory  +3 additional alerts
Northeast Suffolk
  Details for Northeast Suffolk Wind Advisory  +3 additional alerts
Southeast Suffolk
  Details for Southeast Suffolk Wind Advisory  +3 additional alerts


WXM80 ListenWXM80 Stop

You find our weather info also at:

UK Metoffice

WeatherCloud

Weather Underground

Northeastern Weather Network

AWEKAS

Citizen Weather Observer Program (CWOP)

HAMweather, WeatherForYou, PWS Weather


Weather Underground History page Text

Daily Summary for June 30, 2016 Units:  English    Metric   Both
« Previous Day
Next Day »
Daily Weekly Monthly Yearly Custom
  High: Low: Average:
Temperature: 90.5 °F 65.6 °F 76.5 °F
Dew Point: 65.9 °F 58.8 °F 62.2 °F
Humidity: 84 % 37 % 64 %
Wind Speed: 5.2 mph 0.0 mph 1.6 mph
Wind Gust: 12.0 mph - -
Wind:- - SW
Pressure: 30.00 in 29.89 in -
Precipitation: 0.00 in    
Historical Graphs
 
 
Tabular Data for June 30, 2016
Time Temperature Dew Point Pressure Wind Wind Speed Wind Gust Humidity Rainfall Rate (Hourly)
00:03 71.4 °F 63.4 °F 29.89 in WNW 1.2 mph 2.3 mph 76 % 0.00 in
00:09 71.3 °F 63.3 °F 29.89 in SW 0.8 mph 3.5 mph 76 % 0.00 in
00:14 71.2 °F 62.9 °F 29.90 in WSW 0.8 mph 4.6 mph 75 % 0.00 in
00:24 71.0 °F 62.3 °F 29.90 in WSW 0.7 mph 2.3 mph 74 % 0.00 in
00:29 71.0 °F 62.3 °F 29.89 in West 2.0 mph 3.5 mph 74 % 0.00 in
00:34 70.9 °F 62.2 °F 29.90 in WSW 2.5 mph 4.0 mph 74 % 0.00 in
00:39 70.8 °F 62.1 °F 29.90 in SSW 1.0 mph 2.3 mph 74 % 0.00 in
00:44 70.8 °F 62.1 °F 29.90 in SW 1.7 mph 3.0 mph 74 % 0.00 in
00:49 70.7 °F 62.0 °F 29.90 in SW 2.9 mph 5.8 mph 74 % 0.00 in
00:54 70.6 °F 61.5 °F 29.90 in SW 1.4 mph 3.0 mph 73 % 0.00 in
01:00 70.5 °F 61.8 °F 29.90 in SW 0.4 mph 3.5 mph 74 % 0.00 in
01:05 70.5 °F 62.2 °F 29.90 in SW 0.4 mph 1.2 mph 75 % 0.00 in
01:10 70.4 °F 62.1 °F 29.90 in SW 1.5 mph 3.5 mph 75 % 0.00 in
01:15 70.3 °F 62.0 °F 29.91 in West 0.2 mph 3.5 mph 75 % 0.00 in
01:20 70.3 °F 62.0 °F 29.91 in West 0.4 mph 3.5 mph 75 % 0.00 in
01:25 70.2 °F 61.9 °F 29.91 in West 0.8 mph 2.3 mph 75 % 0.00 in
01:30 70.1 °F 61.8 °F 29.90 in West 0.3 mph 1.2 mph 75 % 0.00 in
01:35 70.0 °F 61.7 °F 29.91 in West 1.5 mph 4.0 mph 75 % 0.00 in
01:40 69.9 °F 61.6 °F 29.90 in SW 1.0 mph 3.0 mph 75 % 0.00 in
01:51 69.7 °F 61.8 °F 29.91 in WSW 0.1 mph 1.2 mph 76 % 0.00 in
01:56 69.7 °F 62.2 °F 29.91 in WSW 0.7 mph 2.3 mph 77 % 0.00 in
02:01 69.6 °F 61.7 °F 29.91 in WSW 0.7 mph 3.5 mph 76 % 0.00 in
02:06 69.5 °F 61.6 °F 29.90 in WSW 0.6 mph 2.3 mph 76 % 0.00 in
02:11 69.4 °F 61.5 °F 29.91 in WSW 0.4 mph 3.5 mph 76 % 0.00 in
02:16 69.2 °F 61.3 °F 29.91 in WSW 0.4 mph 2.3 mph 76 % 0.00 in
02:21 69.1 °F 61.2 °F 29.91 in WSW 0.5 mph 2.3 mph 76 % 0.00 in
02:26 69.0 °F 61.1 °F 29.91 in WSW 0.5 mph 1.2 mph 76 % 0.00 in
02:31 68.9 °F 61.0 °F 29.91 in West 2.5 mph 3.5 mph 76 % 0.00 in
02:36 68.8 °F 60.9 °F 29.91 in West 1.3 mph 3.5 mph 76 % 0.00 in
02:47 68.6 °F 61.1 °F 29.91 in WSW 1.2 mph 3.5 mph 77 % 0.00 in
02:52 68.5 °F 61.0 °F 29.92 in WSW 1.1 mph 2.3 mph 77 % 0.00 in
02:57 68.5 °F 61.0 °F 29.92 in WSW 2.0 mph 4.6 mph 77 % 0.00 in
03:02 68.4 °F 60.9 °F 29.92 in West 2.3 mph 3.5 mph 77 % 0.00 in
03:07 68.4 °F 60.9 °F 29.92 in SW 1.0 mph 3.5 mph 77 % 0.00 in
03:12 68.4 °F 60.9 °F 29.92 in WSW 2.4 mph 3.5 mph 77 % 0.00 in
03:17 68.4 °F 60.9 °F 29.92 in SW 0.6 mph 2.3 mph 77 % 0.00 in
03:22 68.3 °F 60.8 °F 29.92 in West 1.0 mph 3.5 mph 77 % 0.00 in
03:28 68.3 °F 60.8 °F 29.92 in West 0.2 mph 2.3 mph 77 % 0.00 in
03:33 68.3 °F 60.8 °F 29.92 in West 0.2 mph 1.2 mph 77 % 0.00 in
03:38 68.2 °F 60.7 °F 29.92 in Calm   2.3 mph 77 % 0.00 in
03:43 68.1 °F 61.0 °F 29.92 in Calm   1.2 mph 78 % 0.00 in
03:48 68.0 °F 60.9 °F 29.92 in West 0.2 mph 1.2 mph 78 % 0.00 in
03:53 67.9 °F 61.1 °F 29.92 in West 0.2 mph 1.2 mph 79 % 0.00 in
03:58 67.8 °F 61.0 °F 29.93 in West 1.2 mph 2.3 mph 79 % 0.00 in
04:03 67.7 °F 61.3 °F 29.93 in West 0.1 mph 1.2 mph 80 % 0.00 in
04:08 67.6 °F 60.9 °F 29.93 in West 1.0 mph 2.0 mph 79 % 0.00 in
04:13 67.5 °F 60.8 °F 29.93 in Calm     79 % 0.00 in
04:19 67.4 °F 61.0 °F 29.93 in West 0.1 mph   80 % 0.00 in
04:24 67.3 °F 60.9 °F 29.93 in Calm   1.2 mph 80 % 0.00 in
04:29 67.2 °F 60.8 °F 29.93 in Calm   1.2 mph 80 % 0.00 in
04:34 67.1 °F 60.7 °F 29.93 in West 0.3 mph 1.2 mph 80 % 0.00 in
04:39 67.0 °F 61.0 °F 29.93 in Calm     81 % 0.00 in
04:44 66.8 °F 60.8 °F 29.93 in West 0.5 mph 1.2 mph 81 % 0.00 in
04:49 66.7 °F 60.7 °F 29.94 in Calm     81 % 0.00 in
04:54 66.6 °F 60.9 °F 29.94 in West 0.1 mph 1.0 mph 82 % 0.00 in
04:59 66.4 °F 60.7 °F 29.94 in West 0.8 mph 2.3 mph 82 % 0.00 in
05:04 66.3 °F 60.6 °F 29.94 in West 0.9 mph 3.5 mph 82 % 0.00 in
05:10 66.1 °F 60.8 °F 29.94 in West 0.4 mph 2.3 mph 83 % 0.00 in
05:15 66.0 °F 60.7 °F 29.94 in Calm   2.3 mph 83 % 0.00 in
05:20 65.9 °F 60.6 °F 29.94 in WSW 2.5 mph 2.5 mph 83 % 0.00 in
05:25 65.8 °F 60.5 °F 29.95 in NW 2.0 mph 5.8 mph 83 % 0.00 in
05:30 65.7 °F 60.4 °F 29.95 in WNW 0.9 mph 3.5 mph 83 % 0.00 in
05:35 65.6 °F 60.0 °F 29.95 in WSW 0.5 mph 3.5 mph 82 % 0.00 in
05:40 65.6 °F 60.0 °F 29.95 in SW 1.3 mph 3.5 mph 82 % 0.00 in
05:45 65.6 °F 60.0 °F 29.96 in SW 0.4 mph 1.2 mph 82 % 0.00 in
05:50 65.6 °F 60.0 °F 29.96 in SW 0.5 mph 2.3 mph 82 % 0.00 in
05:55 65.6 °F 60.0 °F 29.96 in SW 1.0 mph 2.0 mph 82 % 0.00 in
06:01 65.6 °F 60.0 °F 29.96 in West 1.0 mph 2.3 mph 82 % 0.00 in
06:06 65.6 °F 60.3 °F 29.96 in West 0.3 mph 2.3 mph 83 % 0.00 in
06:11 65.6 °F 60.3 °F 29.96 in West 0.6 mph 2.3 mph 83 % 0.00 in
06:21 65.7 °F 60.4 °F 29.97 in SW 0.9 mph 3.5 mph 83 % 0.00 in
06:26 65.8 °F 60.5 °F 29.97 in WSW 0.3 mph 2.3 mph 83 % 0.00 in
06:31 66.0 °F 61.0 °F 29.97 in West 0.1 mph 1.2 mph 84 % 0.00 in
06:36 66.2 °F 60.9 °F 29.97 in West 0.9 mph 3.5 mph 83 % 0.00 in
06:41 66.4 °F 61.1 °F 29.97 in WSW 1.1 mph 3.5 mph 83 % 0.00 in
06:46 66.7 °F 61.0 °F 29.97 in WNW 1.2 mph 1.2 mph 82 % 0.00 in
06:52 67.1 °F 61.1 °F 29.97 in WSW 1.2 mph 3.5 mph 81 % 0.00 in
06:57 67.4 °F 61.4 °F 29.97 in NW 0.3 mph 2.3 mph 81 % 0.00 in
07:02 67.9 °F 61.5 °F 29.97 in SW 0.2 mph 2.3 mph 80 % 0.00 in
07:07 68.3 °F 61.9 °F 29.97 in WNW 2.3 mph 3.5 mph 80 % 0.00 in
07:12 68.7 °F 61.6 °F 29.97 in West 2.7 mph 4.6 mph 78 % 0.00 in
07:17 69.2 °F 61.3 °F 29.98 in WNW 2.5 mph 5.8 mph 76 % 0.00 in
07:22 69.7 °F 61.8 °F 29.98 in WNW 3.4 mph 6.0 mph 76 % 0.00 in
07:27 70.1 °F 62.6 °F 29.98 in NNE 0.3 mph 3.5 mph 77 % 0.00 in
07:32 70.4 °F 61.7 °F 29.98 in West 2.0 mph 3.5 mph 74 % 0.00 in
07:37 70.7 °F 61.6 °F 29.97 in WSW 1.5 mph 3.5 mph 73 % 0.00 in
07:43 71.0 °F 61.9 °F 29.98 in WNW 0.2 mph 3.5 mph 73 % 0.00 in
07:48 71.0 °F 61.5 °F 29.98 in WNW 1.9 mph 3.5 mph 72 % 0.00 in
07:53 71.0 °F 62.3 °F 29.98 in West 1.9 mph 4.6 mph 74 % 0.00 in
07:58 70.9 °F 62.2 °F 29.98 in WNW 0.7 mph 4.0 mph 74 % 0.00 in
08:03 70.9 °F 61.8 °F 29.98 in WNW 1.9 mph 3.5 mph 73 % 0.00 in
08:08 70.8 °F 61.3 °F 29.98 in West 4.0 mph 5.0 mph 72 % 0.00 in
08:13 70.7 °F 61.2 °F 29.98 in WNW 3.5 mph 6.9 mph 72 % 0.00 in
08:18 70.7 °F 61.6 °F 29.98 in SW 2.0 mph 3.0 mph 73 % 0.00 in
08:23 70.7 °F 61.2 °F 29.98 in North 1.1 mph 3.5 mph 72 % 0.00 in
08:28 70.7 °F 61.2 °F 29.98 in West 0.7 mph 3.5 mph 72 % 0.00 in
08:34 70.7 °F 61.6 °F 29.98 in NNE 0.6 mph 3.5 mph 73 % 0.00 in
08:39 70.8 °F 61.7 °F 29.98 in WNW 4.1 mph 5.8 mph 73 % 0.00 in
08:44 71.0 °F 61.5 °F 29.98 in West 2.8 mph 4.0 mph 72 % 0.00 in
08:49 71.1 °F 61.6 °F 29.98 in North 0.9 mph 2.3 mph 72 % 0.00 in
08:54 71.2 °F 60.9 °F 29.98 in WNW 0.8 mph 3.5 mph 70 % 0.00 in
08:59 71.3 °F 61.4 °F 29.98 in NNW 0.6 mph 2.0 mph 71 % 0.00 in
09:04 71.3 °F 61.0 °F 29.98 in West 3.4 mph 4.6 mph 70 % 0.00 in
09:09 71.4 °F 61.1 °F 29.98 in NW 2.0 mph 3.5 mph 70 % 0.00 in
09:14 71.5 °F 61.2 °F 29.98 in WNW 2.0 mph 3.5 mph 70 % 0.00 in
09:19 71.6 °F 60.9 °F 29.98 in SW 1.0 mph 3.5 mph 69 % 0.00 in
09:25 71.8 °F 61.5 °F 29.98 in NW 1.0 mph 2.3 mph 70 % 0.00 in
09:30 71.9 °F 60.8 °F 29.98 in SW 0.6 mph 4.6 mph 68 % 0.00 in
09:35 72.1 °F 61.4 °F 29.98 in NNE 1.1 mph 1.2 mph 69 % 0.00 in
09:40 72.3 °F 60.7 °F 29.98 in WNW 2.8 mph 5.8 mph 67 % 0.00 in
09:45 72.6 °F 61.0 °F 29.98 in West 2.2 mph 4.6 mph 67 % 0.00 in
09:50 73.1 °F 61.5 °F 29.98 in North 1.2 mph 2.3 mph 67 % 0.00 in
09:55 73.7 °F 61.2 °F 29.98 in WNW 1.9 mph 3.5 mph 65 % 0.00 in
10:00 74.6 °F 62.1 °F 29.98 in NW 0.8 mph 2.3 mph 65 % 0.00 in
10:05 75.9 °F 63.7 °F 29.98 in West 1.2 mph 3.5 mph 66 % 0.00 in
10:10 76.9 °F 62.0 °F 29.98 in NE 0.4 mph 2.3 mph 60 % 0.00 in
10:16 77.9 °F 60.9 °F 29.98 in West 2.0 mph 3.5 mph 56 % 0.00 in
10:21 78.8 °F 62.8 °F 29.98 in West 1.4 mph 3.5 mph 58 % 0.00 in
10:26 80.0 °F 62.9 °F 29.98 in NNE 1.5 mph 3.5 mph 56 % 0.00 in
10:31 80.7 °F 60.9 °F 29.99 in WNW 3.8 mph 7.0 mph 51 % 0.00 in
10:36 81.4 °F 62.1 °F 29.99 in NNE 2.8 mph 3.5 mph 52 % 0.00 in
10:41 82.2 °F 62.8 °F 29.99 in North 3.1 mph 4.0 mph 52 % 0.00 in
10:46 82.5 °F 62.0 °F 29.99 in West 1.9 mph 3.5 mph 50 % 0.00 in
10:56 83.6 °F 62.4 °F 30.00 in NNE 1.7 mph 3.5 mph 49 % 0.00 in
11:01 84.0 °F 62.8 °F 30.00 in West 2.6 mph 4.6 mph 49 % 0.00 in
11:07 84.4 °F 60.7 °F 29.99 in NW 1.8 mph 3.5 mph 45 % 0.00 in
11:12 84.6 °F 62.1 °F 29.99 in SW 2.4 mph 4.6 mph 47 % 0.00 in
11:17 85.1 °F 62.6 °F 29.99 in NNE 2.2 mph 4.6 mph 47 % 0.00 in
11:22 85.2 °F 62.1 °F 29.99 in NNW 3.5 mph 5.8 mph 46 % 0.00 in
11:27 85.3 °F 64.6 °F 29.99 in WNW 1.3 mph 3.5 mph 50 % 0.00 in
11:32 85.9 °F 63.3 °F 29.99 in North 2.0 mph 3.5 mph 47 % 0.00 in
11:37 86.0 °F 62.8 °F 29.99 in NNW 0.8 mph 3.5 mph 46 % 0.00 in
11:42 86.3 °F 64.9 °F 29.99 in North 3.4 mph 6.9 mph 49 % 0.00 in
11:47 86.6 °F 64.0 °F 29.99 in NE 2.7 mph 4.0 mph 47 % 0.00 in
11:52 86.6 °F 64.6 °F 29.99 in WSW 1.7 mph 5.0 mph 48 % 0.00 in
11:57 86.8 °F 63.5 °F 29.99 in SW 1.3 mph 8.1 mph 46 % 0.00 in
12:03 87.1 °F 62.5 °F 29.99 in SW 3.4 mph 6.0 mph 44 % 0.00 in
12:08 87.4 °F 65.9 °F 29.99 in North 1.5 mph 3.5 mph 49 % 0.00 in
12:13 88.0 °F 64.0 °F 29.99 in NNE 1.1 mph 3.5 mph 45 % 0.00 in
12:18 88.2 °F 62.9 °F 29.98 in West 2.2 mph 4.6 mph 43 % 0.00 in
12:23 88.4 °F 63.7 °F 29.99 in North 3.6 mph 5.0 mph 44 % 0.00 in
12:28 88.7 °F 63.3 °F 29.98 in NNE 3.5 mph 5.8 mph 43 % 0.00 in
12:33 88.6 °F 63.2 °F 29.98 in NW 1.0 mph 3.5 mph 43 % 0.00 in
12:38 88.6 °F 61.9 °F 29.98 in NNE 3.0 mph 5.0 mph 41 % 0.00 in
12:43 88.4 °F 62.4 °F 29.98 in NW 2.4 mph 4.0 mph 42 % 0.00 in
12:48 88.3 °F 63.6 °F 29.98 in WNW 4.1 mph 4.1 mph 44 % 0.00 in
12:59 88.4 °F 63.1 °F 29.98 in SSW 3.2 mph 8.1 mph 43 % 0.00 in
13:04 88.4 °F 62.4 °F 29.98 in West 3.4 mph 6.9 mph 42 % 0.00 in
13:09 88.4 °F 63.1 °F 29.98 in SSW 1.1 mph 3.5 mph 43 % 0.00 in
13:14 88.4 °F 64.4 °F 29.98 in SSW 0.4 mph 3.5 mph 45 % 0.00 in
13:19 88.8 °F 60.7 °F 29.98 in WSW 2.4 mph 6.0 mph 39 % 0.00 in
13:24 88.9 °F 60.7 °F 29.98 in WSW 2.3 mph 5.0 mph 39 % 0.00 in
13:29 89.0 °F 60.8 °F 29.98 in WSW 3.4 mph 7.0 mph 39 % 0.00 in
13:34 89.1 °F 63.7 °F 29.98 in NW 0.6 mph 8.1 mph 43 % 0.00 in
13:40 89.2 °F 65.1 °F 29.98 in West 3.1 mph 3.5 mph 45 % 0.00 in
13:45 89.4 °F 61.9 °F 29.98 in SW 3.5 mph 4.6 mph 40 % 0.00 in
13:50 89.6 °F 62.8 °F 29.98 in North 5.2 mph 6.9 mph 41 % 0.00 in
13:55 89.7 °F 62.9 °F 29.98 in SW 2.8 mph 9.2 mph 41 % 0.00 in
14:00 89.6 °F 62.8 °F 29.98 in SSW 4.2 mph 6.0 mph 41 % 0.00 in
14:05 89.6 °F 62.8 °F 29.98 in SW 1.6 mph 3.5 mph 41 % 0.00 in
14:10 89.6 °F 63.5 °F 29.97 in SSW 3.7 mph 4.6 mph 42 % 0.00 in
14:15 89.5 °F 61.3 °F 29.97 in WNW 4.2 mph 6.9 mph 39 % 0.00 in
14:20 89.5 °F 62.7 °F 29.97 in SSW 2.1 mph 3.5 mph 41 % 0.00 in
14:25 89.5 °F 62.0 °F 29.97 in SW 3.5 mph 3.5 mph 40 % 0.00 in
14:31 89.6 °F 62.8 °F 29.97 in SW 3.0 mph 9.0 mph 41 % 0.00 in
14:36 89.8 °F 62.3 °F 29.97 in SW 4.7 mph 6.9 mph 40 % 0.00 in
14:41 90.0 °F 61.0 °F 29.97 in West 4.8 mph 8.1 mph 38 % 0.00 in
14:46 90.1 °F 61.8 °F 29.97 in SSW 1.6 mph 3.5 mph 39 % 0.00 in
14:51 90.4 °F 62.1 °F 29.97 in SSW 2.4 mph 4.0 mph 39 % 0.00 in
14:56 90.5 °F 60.7 °F 29.96 in WSW 2.6 mph 4.6 mph 37 % 0.00 in
15:01 90.5 °F 62.2 °F 29.96 in WNW 2.3 mph 7.0 mph 39 % 0.00 in
15:06 90.5 °F 60.7 °F 29.96 in NW 3.8 mph 5.8 mph 37 % 0.00 in
15:11 90.4 °F 60.6 °F 29.96 in WNW 1.3 mph 5.8 mph 37 % 0.00 in
15:22 90.2 °F 61.9 °F 29.96 in NNE 1.8 mph 10.4 mph 39 % 0.00 in
15:27 90.2 °F 61.2 °F 29.96 in NNW 1.7 mph 3.5 mph 38 % 0.00 in
15:32 90.2 °F 61.2 °F 29.96 in SW 1.9 mph 6.9 mph 38 % 0.00 in
15:37 90.3 °F 62.0 °F 29.96 in West 1.8 mph 3.5 mph 39 % 0.00 in
15:42 90.3 °F 62.0 °F 29.96 in NNE 3.7 mph 5.8 mph 39 % 0.00 in
15:47 90.2 °F 61.9 °F 29.96 in NW 2.4 mph 4.6 mph 39 % 0.00 in
15:52 90.1 °F 61.1 °F 29.96 in North 4.8 mph 5.8 mph 38 % 0.00 in
15:57 90.0 °F 61.7 °F 29.95 in North 1.3 mph 6.9 mph 39 % 0.00 in
16:02 89.9 °F 63.0 °F 29.95 in NNE 3.5 mph 4.6 mph 41 % 0.00 in
16:07 89.3 °F 61.8 °F 29.95 in NE 5.0 mph 5.0 mph 40 % 0.00 in
16:18 88.6 °F 61.9 °F 29.95 in NNE 3.9 mph 4.0 mph 41 % 0.00 in
16:23 88.4 °F 61.0 °F 29.95 in NNE 2.7 mph 5.8 mph 40 % 0.00 in
16:28 88.3 °F 61.6 °F 29.95 in NE 1.1 mph 5.8 mph 41 % 0.00 in
16:33 88.3 °F 62.3 °F 29.95 in NNE 0.6 mph 2.0 mph 42 % 0.00 in
16:38 88.1 °F 61.4 °F 29.95 in North 3.2 mph 6.9 mph 41 % 0.00 in
16:43 87.9 °F 60.6 °F 29.95 in North 4.3 mph 4.6 mph 40 % 0.00 in
16:48 87.7 °F 61.1 °F 29.95 in NNE 1.7 mph 3.5 mph 41 % 0.00 in
16:53 87.7 °F 58.9 °F 29.95 in NNW 0.5 mph 3.5 mph 38 % 0.00 in
16:58 87.9 °F 59.8 °F 29.95 in WNW 2.6 mph 6.0 mph 39 % 0.00 in
17:03 87.8 °F 59.0 °F 29.95 in NNE 3.2 mph 5.0 mph 38 % 0.00 in
17:08 87.1 °F 59.1 °F 29.95 in NW 1.0 mph 4.6 mph 39 % 0.00 in
17:14 86.9 °F 59.7 °F 29.94 in NW 1.2 mph 2.3 mph 40 % 0.00 in
17:19 86.7 °F 58.8 °F 29.95 in NNE 1.9 mph 3.5 mph 39 % 0.00 in
17:24 86.6 °F 60.1 °F 29.94 in North 0.7 mph 2.3 mph 41 % 0.00 in
17:29 86.4 °F 59.2 °F 29.95 in NW 1.4 mph 3.5 mph 40 % 0.00 in
17:34 86.4 °F 59.2 °F 29.95 in WSW 2.0 mph 3.5 mph 40 % 0.00 in
17:39 86.4 °F 62.5 °F 29.95 in South 1.8 mph 5.8 mph 45 % 0.00 in
17:44 86.3 °F 62.5 °F 29.95 in SE 2.0 mph 6.0 mph 45 % 0.00 in
17:45 86.1 °F 62.9 °F 29.95 in South 3.0 mph 7.0 mph 46 % 0.00 in
17:55 85.4 °F 63.5 °F 29.96 in South 3.0 mph 12.0 mph 48 % 0.00 in
18:06 83.9 °F 63.3 °F 29.97 in South 5.2 mph 8.1 mph 50 % 0.00 in
18:11 83.0 °F 63.0 °F 29.97 in South 0.7 mph 3.5 mph 51 % 0.00 in
18:16 81.8 °F 63.0 °F 29.97 in SSE 2.3 mph 6.9 mph 53 % 0.00 in
18:21 81.4 °F 63.2 °F 29.97 in WSW 2.3 mph 5.8 mph 54 % 0.00 in
18:27 81.2 °F 63.5 °F 29.97 in SSW 2.5 mph 3.5 mph 55 % 0.00 in
18:32 80.9 °F 63.2 °F 29.97 in SW 3.0 mph 5.0 mph 55 % 0.00 in
18:42 79.9 °F 62.3 °F 29.97 in SSE 2.5 mph 7.0 mph 55 % 0.00 in
18:47 79.3 °F 62.2 °F 29.97 in SSE 1.2 mph 3.5 mph 56 % 0.00 in
18:52 78.9 °F 62.4 °F 29.98 in SSW 2.6 mph 5.0 mph 57 % 0.00 in
18:57 78.4 °F 61.4 °F 29.97 in South 2.5 mph 8.1 mph 56 % 0.00 in
19:02 78.2 °F 61.7 °F 29.98 in SSE 2.6 mph 6.9 mph 57 % 0.00 in
19:07 78.1 °F 61.6 °F 29.97 in SW 1.7 mph 3.5 mph 57 % 0.00 in
19:12 77.9 °F 61.4 °F 29.98 in South 1.8 mph 3.5 mph 57 % 0.00 in
19:17 77.8 °F 62.3 °F 29.97 in SE 1.9 mph 3.5 mph 59 % 0.00 in
19:22 77.4 °F 62.4 °F 29.97 in SE 1.5 mph 3.5 mph 60 % 0.00 in
19:28 77.1 °F 62.6 °F 29.97 in SSE 2.6 mph 3.5 mph 61 % 0.00 in
19:33 76.7 °F 62.7 °F 29.98 in SSW 1.8 mph 4.0 mph 62 % 0.00 in
19:38 76.5 °F 63.0 °F 29.97 in SE 1.9 mph 6.0 mph 63 % 0.00 in
19:43 76.1 °F 63.0 °F 29.98 in South 0.6 mph 3.5 mph 64 % 0.00 in
19:48 75.8 °F 63.2 °F 29.98 in SSE 1.2 mph 3.5 mph 65 % 0.00 in
19:53 75.5 °F 63.3 °F 29.98 in SSE 2.1 mph 5.8 mph 66 % 0.00 in
19:58 75.3 °F 63.6 °F 29.97 in South 0.8 mph 3.5 mph 67 % 0.00 in
20:03 75.1 °F 63.8 °F 29.97 in SSW 1.7 mph 3.5 mph 68 % 0.00 in
20:08 74.9 °F 64.0 °F 29.98 in South 1.0 mph 3.5 mph 69 % 0.00 in
20:13 74.8 °F 63.9 °F 29.98 in SSE 0.1 mph 4.6 mph 69 % 0.00 in
20:18 74.7 °F 64.3 °F 29.97 in SSE 2.8 mph 5.0 mph 70 % 0.00 in
20:24 74.4 °F 64.4 °F 29.97 in SSE 0.7 mph 2.3 mph 71 % 0.00 in
20:29 74.3 °F 64.3 °F 29.97 in SSE 1.1 mph 3.5 mph 71 % 0.00 in
20:34 74.2 °F 64.6 °F 29.97 in South 1.7 mph 3.5 mph 72 % 0.00 in
20:39 74.2 °F 64.6 °F 29.97 in SSE 0.6 mph 2.3 mph 72 % 0.00 in
20:44 74.1 °F 64.5 °F 29.97 in SSE 1.0 mph 3.5 mph 72 % 0.00 in
20:49 74.0 °F 64.8 °F 29.97 in SSE 1.1 mph 4.6 mph 73 % 0.00 in
20:54 73.9 °F 64.7 °F 29.97 in SSE 0.3 mph 2.3 mph 73 % 0.00 in
20:59 73.8 °F 65.0 °F 29.98 in SE 0.5 mph 2.3 mph 74 % 0.00 in
21:04 73.8 °F 65.0 °F 29.97 in South 0.4 mph 2.3 mph 74 % 0.00 in
21:09 73.7 °F 65.3 °F 29.98 in SE 0.6 mph 4.6 mph 75 % 0.00 in
21:15 73.5 °F 65.1 °F 29.98 in SE 0.9 mph 2.3 mph 75 % 0.00 in
21:21 73.4 °F 65.0 °F 29.98 in SSE 0.7 mph 4.0 mph 75 % 0.00 in
21:26 73.2 °F 65.2 °F 29.98 in South 0.7 mph 2.3 mph 76 % 0.00 in
21:31 73.1 °F 65.1 °F 29.98 in SSE 0.2 mph 2.0 mph 76 % 0.00 in
21:36 73.0 °F 65.4 °F 29.99 in South 0.3 mph 1.2 mph 77 % 0.00 in
21:41 72.9 °F 65.3 °F 29.99 in South 0.2 mph 2.3 mph 77 % 0.00 in
21:46 72.8 °F 65.2 °F 29.99 in South 0.3 mph 1.2 mph 77 % 0.00 in
21:51 72.6 °F 65.3 °F 29.99 in South 1.1 mph 3.5 mph 78 % 0.00 in
21:56 72.6 °F 65.3 °F 29.99 in South 0.4 mph 2.0 mph 78 % 0.00 in
22:01 72.5 °F 64.9 °F 29.99 in South 0.2 mph 2.3 mph 77 % 0.00 in
22:12 72.3 °F 65.1 °F 29.99 in South 0.3 mph 2.3 mph 78 % 0.00 in
22:17 72.3 °F 64.7 °F 29.99 in South 0.6 mph 3.5 mph 77 % 0.00 in
22:22 72.2 °F 64.6 °F 29.99 in South 0.6 mph 3.5 mph 77 % 0.00 in
22:27 72.2 °F 64.6 °F 29.99 in SSW 0.5 mph 2.3 mph 77 % 0.00 in
22:32 72.2 °F 64.6 °F 29.99 in SSW 1.0 mph 2.3 mph 77 % 0.00 in
22:37 72.2 °F 64.2 °F 30.00 in SSW 0.5 mph 1.2 mph 76 % 0.00 in
22:42 72.2 °F 64.2 °F 30.00 in SSW 1.5 mph 3.5 mph 76 % 0.00 in
22:47 72.2 °F 64.2 °F 30.00 in SSW 2.8 mph 3.5 mph 76 % 0.00 in
22:52 72.2 °F 64.2 °F 30.00 in SSW 0.4 mph 3.5 mph 76 % 0.00 in
22:57 72.2 °F 63.8 °F 30.00 in SSW 2.0 mph 3.5 mph 75 % 0.00 in
23:03 72.3 °F 63.9 °F 29.99 in SSW 1.9 mph 5.8 mph 75 % 0.00 in
23:08 72.3 °F 63.5 °F 29.99 in South 2.3 mph 3.5 mph 74 % 0.00 in
23:13 72.3 °F 63.5 °F 29.99 in SSW 1.2 mph 3.5 mph 74 % 0.00 in
23:18 72.4 °F 63.6 °F 29.99 in SW 1.0 mph 2.3 mph 74 % 0.00 in
23:23 72.4 °F 63.3 °F 29.99 in SW 0.5 mph 2.3 mph 73 % 0.00 in
23:28 72.4 °F 63.3 °F 29.99 in SW 0.1 mph 1.2 mph 73 % 0.00 in
23:33 72.4 °F 63.3 °F 29.99 in SW 0.6 mph 2.3 mph 73 % 0.00 in
23:38 72.4 °F 63.6 °F 29.98 in SW 0.3 mph 2.3 mph 74 % 0.00 in
23:43 72.4 °F 63.6 °F 29.99 in SSE 0.4 mph 1.2 mph 74 % 0.00 in
23:48 72.3 °F 63.5 °F 29.99 in South 0.2 mph 2.3 mph 74 % 0.00 in
23:59 72.3 °F 63.9 °F 29.98 in South 0.5 mph 2.3 mph 75 % 0.00 in
Crab Meadow Weather
Compliments of Weather Underground - 3 mb

Script developed by  Jim McMurry - jmcmurry@mwt.net Adapted for the template by  Wim van der Kuil - Leuven-Template.eu

Recycling: To produce each week's Sunday newspapers, 500,000 trees must be cut down.